KISP/ISP METAR and TAF weather

Enter ICAO airport designator
Station Type Date Time Source
KISP METAR 2019/12/07 04:56 UTC NOAA

KISP 070456Z 33012KT 10SM FEW060 04/M04 A3009 RMK AO2 SLP191 LAST T00391044 400941011


Station Type Date Time Source
KISP Decoded METAR 2019/12/07 04:56 UTC NOAA

ISLIP LONG ISLAND MAC ART, NY, United States (KISP) 40-48N 073-06W 43M
Dec 06, 2019 - 11:56 PM EST / 2019.12.07 0456 UTC
Wind: from the NNW (330 degrees) at 14 MPH (12 KT):0
Visibility: 10 mile(s):0
Sky conditions: mostly clear
Temperature: 39.0 F (3.9 C)
Dew Point: 24.1 F (-4.4 C)
Relative Humidity: 54%
Pressure (altimeter): 30.09 in. Hg (1018 hPa)
ob: KISP 070456Z 33012KT 10SM FEW060 04/M04 A3009 RMK AO2 SLP191 LAST T00391044 400941011
cycle: 5

Station Type Date Time Source
KISP TAF 2019/12/07 03:34 UTC NOAA

TAF
AMD KISP 070232Z 0703/0724 31019G25KT P6SM OVC060
FM070600 33010KT P6SM SKC
FM071600 33010KT P6SM FEW250
FM072300 32007KT P6SM FEW250

Example: see airport list